Terminal Aerodrome Forecast
Issued by NWS

Home | Current Version | Previous Version | Graphics & Text | Print | Product List | Glossary On
Versions: 1 2 3 4 5 6 7 8 9 10 11 12 13 14 15 16 17 18 19 20
706
FTUS43 KBIS 231730
TAFMOT
TAF
KMOT 231730Z 2318/2418 32005KT P6SM BKN070
     FM232000 27014G22KT P6SM SCT080
     FM240100 27010KT P6SM SCT080
     FM241500 28015G25KT P6SM SCT070=

USA.gov is the U.S. government's official web portal to all federal, state and local government web resources and services.